createdAt,value
2022-08-26T00:00:53.770Z,19.98
2022-08-26T00:03:23.923Z,23.90
2022-08-26T00:05:52.030Z,22.73
2022-08-26T00:08:21.619Z,26.33
2022-08-26T00:15:48.924Z,22.83
2022-08-26T00:18:22.293Z,26.23
2022-08-26T00:20:51.737Z,27.80
2022-08-26T00:23:20.797Z,27.60
2022-08-26T00:25:53.747Z,25.92
2022-08-26T00:30:51.731Z,25.08
2022-08-26T00:33:21.315Z,25.50
2022-08-26T00:35:50.050Z,28.40
2022-08-26T00:38:22.887Z,24.38
2022-08-26T00:40:54.289Z,22.73
2022-08-26T00:43:24.647Z,21.50
2022-08-26T00:46:06.851Z,22.17
2022-08-26T00:48:38.146Z,22.90
2022-08-26T00:51:15.684Z,29.17
2022-08-26T00:53:54.215Z,28.40
2022-08-26T00:56:33.501Z,26.13
2022-08-26T00:59:05.600Z,23.73
2022-08-26T01:01:34.954Z,20.83
2022-08-26T01:04:03.338Z,26.23
2022-08-26T01:06:31.755Z,30.63
2022-08-26T01:09:00.461Z,30.75
2022-08-26T01:11:28.821Z,30.40
2022-08-26T01:14:00.331Z,29.13
2022-08-26T01:16:33.543Z,28.83
2022-08-26T01:19:10.777Z,33.55
2022-08-26T01:21:50.198Z,34.25
2022-08-26T01:24:19.724Z,36.42
2022-08-26T01:26:49.112Z,36.35
2022-08-26T01:31:55.720Z,36.80
2022-08-26T01:34:30.822Z,42.17
2022-08-26T01:37:14.176Z,41.90
2022-08-26T01:39:47.990Z,39.13
2022-08-26T01:42:19.397Z,36.20
2022-08-26T01:45:18.805Z,33.58
2022-08-26T01:47:57.118Z,40.75
2022-08-26T01:50:35.869Z,40.65
2022-08-26T01:53:10.590Z,49.72
2022-08-26T01:55:42.922Z,50.65
2022-08-26T01:58:18.176Z,54.00
2022-08-26T02:00:48.035Z,50.10
2022-08-26T02:03:22.051Z,49.38
2022-08-26T02:05:55.736Z,51.03
2022-08-26T02:08:48.199Z,46.25
2022-08-26T02:11:30.047Z,62.05
2022-08-26T02:14:04.205Z,49.83
2022-08-26T02:16:38.889Z,44.50
2022-08-26T02:19:17.464Z,48.63
2022-08-26T02:22:08.570Z,55.35
2022-08-26T02:25:16.435Z,54.97
2022-08-26T02:27:49.272Z,47.33
2022-08-26T02:30:22.469Z,49.78
2022-08-26T02:32:52.520Z,50.08
2022-08-26T02:35:22.639Z,68.45
2022-08-26T02:37:52.822Z,59.75
2022-08-26T02:40:26.503Z,58.45
2022-08-26T02:42:57.087Z,52.33
2022-08-26T02:45:28.904Z,53.92
2022-08-26T02:47:59.694Z,60.25
2022-08-26T02:50:29.114Z,55.95
2022-08-26T02:52:57.978Z,61.42
2022-08-26T02:55:27.084Z,56.38
2022-08-26T02:57:56.263Z,68.50
2022-08-26T03:00:25.002Z,67.20
2022-08-26T03:02:54.760Z,59.83
2022-08-26T03:05:24.179Z,57.45
2022-08-26T03:07:53.431Z,58.05
2022-08-26T03:10:23.179Z,68.07
2022-08-26T03:12:55.344Z,56.03
2022-08-26T03:15:24.956Z,51.40
2022-08-26T03:17:53.917Z,60.60
2022-08-26T03:20:26.004Z,69.43
2022-08-26T03:22:54.122Z,60.95
2022-08-26T03:25:26.070Z,63.75
2022-08-26T03:27:54.456Z,59.50
2022-08-26T03:30:45.449Z,55.38
2022-08-26T03:33:14.853Z,59.38
2022-08-26T03:35:45.600Z,58.53
2022-08-26T03:38:14.277Z,66.70
2022-08-26T03:40:44.119Z,68.53
2022-08-26T03:43:12.958Z,52.35
2022-08-26T03:45:42.635Z,46.22
2022-08-26T03:48:11.752Z,65.68
2022-08-26T03:53:12.850Z,49.05
2022-08-26T03:55:43.116Z,57.35
2022-08-26T03:58:11.696Z,65.35
2022-08-26T04:00:40.009Z,57.72
2022-08-26T04:03:09.925Z,64.95
2022-08-26T04:05:38.617Z,61.90
2022-08-26T04:08:07.094Z,62.40
2022-08-26T04:10:38.724Z,58.53
2022-08-26T04:13:07.145Z,78.63
2022-08-26T04:15:35.562Z,55.15
2022-08-26T04:18:04.810Z,63.83
2022-08-26T04:20:33.060Z,61.03
2022-08-26T04:23:01.216Z,65.38
2022-08-26T04:25:29.874Z,61.60
2022-08-26T04:27:57.990Z,50.10
2022-08-26T04:30:26.432Z,53.65
2022-08-26T04:32:54.915Z,64.50
2022-08-26T04:35:25.974Z,59.20
2022-08-26T04:37:54.503Z,57.38
2022-08-26T04:40:23.588Z,58.38
2022-08-26T04:42:51.805Z,73.32
2022-08-26T04:45:22.593Z,58.40
2022-08-26T04:47:56.754Z,61.95
2022-08-26T04:50:26.561Z,60.08
2022-08-26T04:52:55.786Z,54.63
2022-08-26T04:55:38.461Z,56.90
2022-08-26T04:58:11.591Z,57.92
2022-08-26T05:00:39.879Z,64.18
2022-08-26T05:03:10.482Z,52.40
2022-08-26T05:05:45.603Z,67.35
2022-08-26T05:08:15.558Z,59.10
2022-08-26T05:10:55.062Z,55.60
2022-08-26T05:13:29.631Z,56.28
2022-08-26T05:16:00.024Z,67.68
2022-08-26T05:18:30.663Z,62.53
2022-08-26T05:21:01.592Z,64.57
2022-08-26T05:23:32.398Z,57.22
2022-08-26T05:26:01.572Z,68.72
2022-08-26T05:28:33.260Z,64.80
2022-08-26T05:31:02.384Z,54.97
2022-08-26T05:33:30.601Z,65.70
2022-08-26T05:36:08.187Z,63.38
2022-08-26T05:38:39.339Z,63.33
2022-08-26T05:41:16.733Z,52.25
2022-08-26T05:43:45.428Z,55.22
2022-08-26T05:46:13.803Z,56.67
2022-08-26T05:51:13.384Z,62.50
2022-08-26T05:53:43.933Z,52.30
2022-08-26T05:56:26.428Z,56.72
2022-08-26T05:58:56.272Z,58.13
2022-08-26T06:01:29.042Z,59.25
2022-08-26T06:04:01.594Z,51.33
2022-08-26T06:06:36.510Z,53.33
2022-08-26T06:09:10.861Z,59.67
2022-08-26T06:11:40.599Z,50.67
2022-08-26T06:14:08.910Z,49.83
2022-08-26T06:16:40.906Z,54.13
2022-08-26T06:19:11.521Z,57.70
2022-08-26T06:21:42.510Z,45.00
2022-08-26T06:24:32.236Z,60.30
2022-08-26T06:27:03.305Z,54.50
2022-08-26T06:29:34.384Z,53.17
2022-08-26T06:32:05.492Z,45.17
2022-08-26T06:34:34.318Z,56.53
2022-08-26T06:37:03.629Z,49.72
2022-08-26T06:39:32.252Z,50.53
2022-08-26T06:42:06.629Z,46.42
2022-08-26T06:44:36.731Z,45.22
2022-08-26T06:47:05.267Z,58.85
2022-08-26T06:49:33.522Z,48.65
2022-08-26T06:52:01.589Z,65.82
2022-08-26T06:54:32.754Z,53.28
2022-08-26T06:57:01.479Z,47.97
2022-08-26T06:59:31.461Z,51.72
2022-08-26T07:02:00.011Z,52.25
2022-08-26T07:04:28.476Z,47.60
2022-08-26T07:06:57.080Z,48.67
2022-08-26T07:09:30.744Z,45.58
2022-08-26T07:11:59.556Z,40.10
2022-08-26T07:14:28.307Z,45.63
2022-08-26T07:16:56.471Z,46.80
2022-08-26T07:19:30.167Z,35.97
2022-08-26T07:22:05.382Z,40.67
2022-08-26T07:24:40.661Z,36.65
2022-08-26T07:27:15.259Z,43.00
2022-08-26T07:29:45.606Z,41.40
2022-08-26T07:32:16.317Z,38.28
2022-08-26T07:34:44.578Z,42.05
2022-08-26T07:37:12.855Z,38.78
2022-08-26T07:39:44.752Z,43.95
2022-08-26T07:42:15.250Z,34.40
2022-08-26T07:44:44.624Z,41.78
2022-08-26T07:47:25.115Z,32.83
2022-08-26T07:49:57.852Z,40.17
2022-08-26T07:52:28.435Z,43.50
2022-08-26T07:54:59.648Z,34.33
2022-08-26T07:57:29.244Z,33.50
2022-08-26T07:59:58.682Z,41.03
2022-08-26T08:02:29.644Z,35.78
2022-08-26T08:05:00.266Z,32.13
2022-08-26T08:07:44.590Z,31.60
2022-08-26T08:10:17.743Z,34.65
2022-08-26T08:12:48.180Z,27.95
2022-08-26T08:15:18.313Z,25.70
2022-08-26T08:17:50.386Z,32.22
2022-08-26T08:20:20.595Z,33.28
2022-08-26T08:22:50.435Z,29.70
2022-08-26T08:25:20.228Z,32.70
2022-08-26T08:27:51.158Z,27.15
2022-08-26T08:30:22.686Z,38.85
2022-08-26T08:32:52.417Z,32.55
2022-08-26T08:35:22.940Z,31.27
2022-08-26T08:37:54.646Z,33.95
2022-08-26T08:40:26.591Z,28.17
2022-08-26T08:43:10.221Z,33.28
2022-08-26T08:45:44.040Z,29.67
2022-08-26T08:48:32.116Z,31.35
2022-08-26T08:51:28.122Z,26.92
2022-08-26T08:53:57.252Z,21.88
2022-08-26T08:56:40.755Z,30.15
2022-08-26T08:59:20.004Z,24.27
2022-08-26T09:02:06.725Z,29.17
2022-08-26T09:05:20.764Z,23.75
2022-08-26T09:08:03.063Z,31.35
2022-08-26T09:10:52.957Z,28.90
2022-08-26T09:13:25.442Z,32.17
2022-08-26T09:16:03.644Z,27.88
2022-08-26T09:18:41.127Z,26.10
2022-08-26T09:21:17.924Z,28.92
2022-08-26T09:23:49.700Z,22.70
2022-08-26T09:26:21.464Z,25.23
2022-08-26T09:29:03.997Z,26.77
2022-08-26T09:31:38.012Z,24.10
2022-08-26T09:34:12.753Z,23.40
2022-08-26T09:36:48.932Z,24.13
2022-08-26T09:39:37.752Z,30.85
2022-08-26T09:42:09.608Z,23.95
2022-08-26T09:44:59.817Z,22.85
2022-08-26T09:48:01.495Z,24.13
2022-08-26T09:50:34.026Z,23.48
2022-08-26T09:53:28.573Z,21.30
2022-08-26T09:56:28.098Z,22.75
2022-08-26T09:58:57.960Z,21.00
2022-08-26T10:01:30.878Z,26.23
2022-08-26T10:04:14.444Z,29.27
2022-08-26T10:07:04.111Z,21.80
2022-08-26T10:09:36.817Z,25.38
2022-08-26T10:12:12.924Z,21.42
2022-08-26T10:14:52.491Z,28.23
2022-08-26T10:17:37.076Z,20.50
2022-08-26T10:20:23.654Z,27.05
2022-08-26T10:25:46.740Z,29.65
2022-08-26T10:28:26.036Z,26.63
2022-08-26T10:31:01.918Z,28.58
2022-08-26T10:33:31.047Z,22.92
2022-08-26T10:36:12.264Z,28.35
2022-08-26T10:38:45.434Z,24.27
2022-08-26T10:41:20.840Z,23.23
2022-08-26T10:43:59.964Z,23.83
2022-08-26T10:46:40.156Z,23.80
2022-08-26T10:49:13.726Z,30.08
2022-08-26T10:52:16.591Z,22.70
2022-08-26T10:54:58.642Z,33.65
2022-08-26T10:57:45.959Z,25.67
2022-08-26T11:00:40.060Z,46.70
2022-08-26T11:03:46.632Z,41.28
2022-08-26T11:06:26.379Z,32.75
2022-08-26T11:09:01.538Z,28.48
2022-08-26T11:11:46.958Z,28.60
2022-08-26T11:14:28.511Z,22.50
2022-08-26T11:17:00.033Z,22.88
2022-08-26T11:19:50.587Z,21.33
2022-08-26T11:22:47.580Z,23.48
2022-08-26T11:25:18.453Z,27.25
2022-08-26T11:27:52.474Z,25.55
2022-08-26T11:30:21.837Z,26.52
2022-08-26T11:32:55.569Z,24.48
2022-08-26T11:35:24.677Z,21.80
2022-08-26T11:38:04.380Z,26.13
2022-08-26T11:40:40.968Z,29.25
2022-08-26T11:43:20.133Z,28.15
2022-08-26T11:45:59.897Z,26.50
2022-08-26T11:48:31.273Z,21.95
2022-08-26T11:51:05.615Z,26.30
2022-08-26T11:53:47.161Z,24.70
2022-08-26T11:56:32.826Z,25.58
2022-08-26T11:59:04.321Z,22.65
2022-08-26T12:01:37.206Z,24.58
2022-08-26T12:04:08.429Z,28.25
2022-08-26T12:06:45.931Z,30.27
2022-08-26T12:09:22.192Z,25.08
2022-08-26T12:11:51.068Z,25.50
2022-08-26T12:14:23.747Z,22.52
2022-08-26T12:16:56.851Z,27.52
2022-08-26T12:19:35.446Z,26.38
2022-08-26T12:22:26.250Z,20.13
2022-08-26T12:25:01.693Z,29.15
2022-08-26T12:27:40.323Z,24.70
2022-08-26T12:30:12.221Z,23.05
2022-08-26T12:32:57.452Z,26.33
2022-08-26T12:35:29.611Z,22.95
2022-08-26T12:37:59.029Z,30.95
2022-08-26T12:40:33.219Z,19.00
2022-08-26T12:43:03.891Z,21.80
2022-08-26T12:45:35.457Z,23.83
2022-08-26T12:48:10.441Z,24.52
2022-08-26T12:50:46.436Z,22.73
2022-08-26T12:53:26.845Z,27.23
2022-08-26T12:56:04.905Z,28.35
2022-08-26T12:58:35.778Z,21.05
2022-08-26T13:01:04.918Z,23.48
2022-08-26T13:03:39.578Z,19.90
2022-08-26T13:06:17.033Z,30.35
2022-08-26T13:08:48.902Z,20.83
2022-08-26T13:11:21.278Z,29.48
2022-08-26T13:14:12.086Z,25.63
2022-08-26T13:16:47.486Z,30.73
2022-08-26T13:19:22.335Z,23.80
2022-08-26T13:21:56.757Z,22.13
2022-08-26T13:24:57.429Z,25.55
2022-08-26T13:27:27.597Z,31.77
2022-08-26T13:29:58.011Z,26.17
2022-08-26T13:32:28.410Z,27.98
2022-08-26T13:34:58.286Z,24.25
2022-08-26T13:37:34.418Z,24.83
2022-08-26T13:40:08.459Z,21.92
2022-08-26T13:42:37.399Z,24.85
2022-08-26T13:45:18.818Z,29.55
2022-08-26T13:48:05.515Z,21.13
2022-08-26T13:50:35.550Z,23.95
2022-08-26T13:53:04.052Z,34.75
2022-08-26T13:55:32.089Z,22.52
2022-08-26T13:58:00.489Z,23.33
2022-08-26T14:02:59.116Z,21.42
2022-08-26T14:05:28.784Z,26.75
2022-08-26T14:07:57.935Z,24.60
2022-08-26T14:10:31.150Z,21.55
2022-08-26T14:12:59.864Z,26.50
2022-08-26T14:15:29.178Z,33.78
2022-08-26T14:17:57.410Z,23.67
2022-08-26T14:20:30.754Z,20.55
2022-08-26T14:23:15.689Z,26.83
2022-08-26T14:25:46.049Z,26.58
2022-08-26T14:28:15.286Z,23.35
2022-08-26T14:30:47.349Z,29.10
2022-08-26T14:33:18.384Z,21.15
2022-08-26T14:35:49.159Z,22.33
2022-08-26T14:38:20.336Z,22.88
2022-08-26T14:40:49.412Z,23.90
2022-08-26T14:43:18.317Z,28.67
2022-08-26T14:45:49.145Z,20.98
2022-08-26T14:48:22.730Z,20.25
2022-08-26T14:50:54.059Z,24.45
2022-08-26T14:53:45.637Z,28.40
2022-08-26T14:56:16.814Z,24.13
2022-08-26T14:58:48.794Z,20.95
2022-08-26T15:01:40.626Z,19.77
2022-08-26T15:04:41.075Z,27.92
2022-08-26T15:07:12.654Z,29.65
2022-08-26T15:09:44.776Z,18.50
2022-08-26T15:12:16.334Z,22.40
2022-08-26T15:14:51.919Z,20.35
2022-08-26T15:17:25.348Z,30.58
2022-08-26T15:19:59.265Z,24.77
2022-08-26T15:22:40.654Z,21.63
2022-08-26T15:25:09.957Z,23.27
2022-08-26T15:27:42.831Z,23.75
2022-08-26T15:30:12.763Z,22.95
2022-08-26T15:32:42.270Z,22.00
2022-08-26T15:35:10.374Z,18.27
2022-08-26T15:37:40.380Z,23.13
2022-08-26T15:40:10.276Z,19.85
2022-08-26T15:42:39.439Z,26.50
2022-08-26T15:45:08.528Z,26.92
2022-08-26T15:47:58.140Z,20.15
2022-08-26T15:50:26.534Z,25.05
2022-08-26T15:52:56.226Z,23.15
2022-08-26T15:55:27.042Z,23.40
2022-08-26T15:57:57.976Z,27.17
2022-08-26T16:00:28.274Z,17.58
2022-08-26T16:03:02.675Z,25.17
2022-08-26T16:05:37.311Z,24.25
2022-08-26T16:08:16.733Z,23.00
2022-08-26T16:10:51.853Z,18.23
2022-08-26T16:13:24.081Z,26.92
2022-08-26T16:15:59.833Z,27.08
2022-08-26T16:18:30.103Z,19.42
2022-08-26T16:21:13.773Z,20.45
2022-08-26T16:23:45.659Z,20.63
2022-08-26T16:26:19.823Z,23.08
2022-08-26T16:28:48.586Z,20.98
2022-08-26T16:31:22.210Z,26.42
2022-08-26T16:33:53.213Z,18.20
2022-08-26T16:36:24.593Z,20.95
2022-08-26T16:38:57.323Z,19.53
2022-08-26T16:41:34.720Z,18.30
2022-08-26T16:44:05.598Z,21.98
2022-08-26T16:46:37.291Z,19.33
2022-08-26T16:49:07.574Z,21.52
2022-08-26T16:51:38.321Z,19.30
2022-08-26T16:54:10.561Z,20.52
2022-08-26T16:56:45.862Z,18.25
2022-08-26T16:59:21.207Z,20.50
2022-08-26T17:01:56.208Z,27.83
2022-08-26T17:04:29.002Z,20.30
2022-08-26T17:07:02.751Z,18.42
2022-08-26T17:09:37.304Z,23.85
2022-08-26T17:12:12.076Z,22.88
2022-08-26T17:14:42.652Z,22.33
2022-08-26T17:17:17.069Z,18.27
2022-08-26T17:19:48.017Z,19.13
2022-08-26T17:22:17.875Z,22.90
2022-08-26T17:24:50.252Z,17.90
2022-08-26T17:27:22.783Z,23.77
2022-08-26T17:29:54.755Z,17.73
2022-08-26T17:32:25.023Z,23.45
2022-08-26T17:34:54.323Z,18.10
2022-08-26T17:37:24.406Z,21.48
2022-08-26T17:39:54.701Z,18.15
2022-08-26T17:42:31.431Z,20.25
2022-08-26T17:45:05.262Z,21.35
2022-08-26T17:47:39.383Z,19.60
2022-08-26T17:50:15.975Z,19.15
2022-08-26T17:52:47.214Z,18.23
2022-08-26T17:55:18.184Z,21.80
2022-08-26T17:57:53.584Z,21.80
2022-08-26T18:00:27.045Z,23.80
2022-08-26T18:03:00.038Z,15.35
2022-08-26T18:05:32.176Z,14.48
2022-08-26T18:08:04.475Z,20.92
2022-08-26T18:10:41.549Z,24.33
2022-08-26T18:13:12.058Z,20.25
2022-08-26T18:15:46.119Z,16.20
2022-08-26T18:18:16.369Z,15.10
2022-08-26T18:20:46.229Z,17.67
2022-08-26T18:25:56.309Z,21.98
2022-08-26T18:28:25.235Z,20.95
2022-08-26T18:30:54.157Z,19.83
2022-08-26T18:33:26.663Z,17.02
2022-08-26T18:35:59.046Z,16.40
2022-08-26T18:38:29.036Z,13.15
2022-08-26T18:41:01.002Z,16.40
2022-08-26T18:43:29.793Z,16.27
2022-08-26T18:46:09.869Z,19.77
2022-08-26T18:48:40.661Z,19.85
2022-08-26T18:51:16.369Z,14.68
2022-08-26T18:53:54.159Z,19.15
2022-08-26T18:56:26.095Z,17.10
2022-08-26T18:59:02.182Z,21.30
2022-08-26T19:01:34.780Z,15.05
2022-08-26T19:04:05.674Z,15.05
2022-08-26T19:06:36.021Z,14.30
2022-08-26T19:09:09.338Z,16.98
2022-08-26T19:14:20.637Z,14.02
2022-08-26T19:16:53.785Z,12.98
2022-08-26T19:19:24.449Z,11.90
2022-08-26T19:21:53.535Z,13.55
2022-08-26T19:24:22.986Z,11.63
2022-08-26T19:27:00.866Z,17.20
2022-08-26T19:29:34.781Z,15.32
2022-08-26T19:32:07.766Z,19.77
2022-08-26T19:34:36.944Z,16.20
2022-08-26T19:37:07.008Z,16.05
2022-08-26T19:39:38.593Z,13.57
2022-08-26T19:42:08.053Z,15.48
2022-08-26T19:44:56.307Z,15.55
2022-08-26T19:47:26.959Z,18.73
2022-08-26T19:49:59.842Z,19.25
2022-08-26T19:52:36.852Z,14.65
2022-08-26T19:55:09.578Z,18.42
2022-08-26T19:57:40.556Z,13.40
2022-08-26T20:00:15.445Z,13.57
2022-08-26T20:02:45.855Z,16.17
2022-08-26T20:05:16.695Z,15.77
2022-08-26T20:07:45.455Z,14.63
2022-08-26T20:10:15.638Z,17.80
2022-08-26T20:12:46.700Z,15.30
2022-08-26T20:15:20.468Z,15.07
2022-08-26T20:17:51.052Z,19.17
2022-08-26T20:20:39.194Z,18.75
2022-08-26T20:23:09.767Z,13.27
2022-08-26T20:25:38.319Z,13.57
2022-08-26T20:28:06.404Z,14.85
2022-08-26T20:30:34.536Z,16.63
2022-08-26T20:33:03.112Z,16.00
2022-08-26T20:35:31.174Z,14.70
2022-08-26T20:37:59.639Z,17.50
2022-08-26T20:40:29.716Z,23.15
2022-08-26T20:42:59.175Z,19.63
2022-08-26T20:45:27.342Z,17.27
2022-08-26T20:47:55.778Z,20.08
2022-08-26T20:50:24.454Z,20.98
2022-08-26T20:53:10.773Z,17.58
2022-08-26T20:55:39.913Z,16.98
2022-08-26T20:58:08.281Z,13.88
2022-08-26T21:00:38.763Z,17.60
2022-08-26T21:03:07.963Z,15.48
2022-08-26T21:05:36.307Z,15.35
2022-08-26T21:08:04.816Z,13.50
2022-08-26T21:10:34.169Z,17.83
2022-08-26T21:13:02.384Z,16.90
2022-08-26T21:15:30.619Z,19.98
2022-08-26T21:18:00.986Z,18.20
2022-08-26T21:23:12.207Z,17.67
2022-08-26T21:25:45.933Z,15.85
2022-08-26T21:28:14.942Z,18.73
2022-08-26T21:30:44.331Z,13.05
2022-08-26T21:35:44.796Z,17.50
2022-08-26T21:38:14.082Z,19.52
2022-08-26T21:40:42.923Z,20.77
2022-08-26T21:43:13.134Z,19.98
2022-08-26T21:45:57.123Z,15.65
2022-08-26T21:48:29.593Z,20.67
2022-08-26T21:51:05.779Z,17.25
2022-08-26T21:53:34.428Z,19.58
2022-08-26T21:56:16.478Z,17.55
2022-08-26T21:58:52.370Z,17.17
2022-08-26T22:01:24.273Z,12.07
2022-08-26T22:03:55.916Z,13.10
2022-08-26T22:06:28.419Z,19.00
2022-08-26T22:08:57.401Z,17.08
2022-08-26T22:11:28.416Z,17.08
2022-08-26T22:13:57.232Z,19.30
2022-08-26T22:16:28.990Z,14.82
2022-08-26T22:18:58.845Z,14.52
2022-08-26T22:21:31.613Z,16.45
2022-08-26T22:24:00.841Z,17.77
2022-08-26T22:26:34.150Z,16.17
2022-08-26T22:29:07.282Z,19.42
2022-08-26T22:31:37.855Z,15.27
2022-08-26T22:34:10.919Z,20.77
2022-08-26T22:36:44.180Z,18.45
2022-08-26T22:39:14.609Z,18.88
2022-08-26T22:41:45.733Z,24.92
2022-08-26T22:44:13.881Z,19.92
2022-08-26T22:46:44.166Z,18.65
2022-08-26T22:49:17.029Z,17.88
2022-08-26T22:51:47.763Z,29.17
2022-08-26T22:54:17.524Z,23.42
2022-08-26T22:56:46.709Z,16.55
2022-08-26T22:59:17.388Z,15.63
2022-08-26T23:01:48.170Z,19.38
2022-08-26T23:04:19.089Z,18.45
2022-08-26T23:06:50.476Z,14.55
2022-08-26T23:09:19.849Z,17.02
2022-08-26T23:11:51.881Z,15.77
2022-08-26T23:14:20.781Z,18.27
2022-08-26T23:16:50.398Z,16.33
2022-08-26T23:19:23.616Z,18.67
2022-08-26T23:21:53.750Z,15.32
2022-08-26T23:24:23.710Z,20.02
2022-08-26T23:26:52.837Z,15.90
2022-08-26T23:29:21.858Z,14.15
2022-08-26T23:31:50.933Z,18.55
2022-08-26T23:34:42.349Z,17.02
2022-08-26T23:37:10.796Z,14.70
2022-08-26T23:39:39.800Z,16.85
2022-08-26T23:42:08.938Z,20.55
2022-08-26T23:47:07.219Z,17.33
2022-08-26T23:49:36.460Z,18.60
2022-08-26T23:52:26.050Z,14.38
2022-08-26T23:54:54.701Z,18.63
2022-08-26T23:57:26.197Z,18.35
2022-08-26T23:59:54.807Z,19.00
